<?xml version="1.0" encoding="UTF-8" standalone="no" ?>
<gpx xmlns="http://www.topografix.com/GPX/1/1" xmlns:xsi="http://www.w3.org/2001/XMLSchema-instance" xsi:schemaLocation="http://www.topografix.com/GPX/1/1 http://www.topografix.com/GPX/1/1/gpx.xsd" version="1.1" creator="VisuGPX - https://www.visugpx.com">
  <metadata>
    <name>Raccords des Ravins autour de La Citée De Pierres</name>
    <desc><![CDATA[Attention : Montpellier Le Vieux c'est privé ! et c'est payant en saison ...]]></desc>
  </metadata>
  <trk>
    <name><![CDATA[Raccord vers la Combe depuis La Citée De Pierres]]></name>
    <desc><![CDATA[Avec un petit jardinage dans La Citée De Pierres (Passage Interdit !)]]></desc>
    <extensions>
      <line xmlns="http://www.topografix.com/GPX/gpx_style/0/2">
        <color>ff0000</color>
        <width>4</width>
          <extensions>
            <sens>1</sens>
          </extensions>
      </line>
    </extensions>
    <trkseg>
      <trkpt lat="44.13619" lon="3.20073">
        <ele>765.6</ele>
        <time>2024-11-13T13:22:52.000Z</time>
      </trkpt>
      <trkpt lat="44.13619" lon="3.20073">
        <ele>765.6</ele>
        <time>2024-11-13T13:22:53.000Z</time>
      </trkpt>
      <trkpt lat="44.13612" lon="3.20062">
        <ele>764.9</ele>
        <time>2024-11-13T13:23:02.000Z</time>
      </trkpt>
      <trkpt lat="44.13602" lon="3.20057">
        <ele>763.9</ele>
        <time>2024-11-13T13:23:05.000Z</time>
      </trkpt>
      <trkpt lat="44.13588" lon="3.20055">
        <ele>763.1</ele>
        <time>2024-11-13T13:23:08.000Z</time>
      </trkpt>
      <trkpt lat="44.13579" lon="3.20051">
        <ele>762</ele>
        <time>2024-11-13T13:23:10.000Z</time>
      </trkpt>
      <trkpt lat="44.13568" lon="3.20048">
        <ele>759.8</ele>
        <time>2024-11-13T13:23:12.000Z</time>
      </trkpt>
      <trkpt lat="44.13556" lon="3.20047">
        <ele>757.3</ele>
        <time>2024-11-13T13:23:14.000Z</time>
      </trkpt>
      <trkpt lat="44.13546" lon="3.20048">
        <ele>756</ele>
        <time>2024-11-13T13:23:16.000Z</time>
      </trkpt>
      <trkpt lat="44.13539" lon="3.20061">
        <ele>754.4</ele>
        <time>2024-11-13T13:23:19.000Z</time>
      </trkpt>
      <trkpt lat="44.13535" lon="3.20078">
        <ele>752.7</ele>
        <time>2024-11-13T13:23:22.000Z</time>
      </trkpt>
      <trkpt lat="44.13527" lon="3.20084">
        <ele>750</ele>
        <time>2024-11-13T13:23:24.000Z</time>
      </trkpt>
      <trkpt lat="44.13514" lon="3.20083">
        <ele>748.6</ele>
        <time>2024-11-13T13:23:26.000Z</time>
      </trkpt>
      <trkpt lat="44.135" lon="3.20081">
        <ele>747.4</ele>
        <time>2024-11-13T13:23:28.000Z</time>
      </trkpt>
      <trkpt lat="44.13486" lon="3.20078">
        <ele>747.4</ele>
        <time>2024-11-13T13:23:30.000Z</time>
      </trkpt>
      <trkpt lat="44.13473" lon="3.20069">
        <ele>747</ele>
        <time>2024-11-13T13:23:32.000Z</time>
      </trkpt>
      <trkpt lat="44.13459" lon="3.20064">
        <ele>747.8</ele>
        <time>2024-11-13T13:23:34.000Z</time>
      </trkpt>
      <trkpt lat="44.13446" lon="3.2006">
        <ele>747.2</ele>
        <time>2024-11-13T13:23:36.000Z</time>
      </trkpt>
      <trkpt lat="44.13436" lon="3.20062">
        <ele>748.3</ele>
        <time>2024-11-13T13:23:38.000Z</time>
      </trkpt>
      <trkpt lat="44.13427" lon="3.20061">
        <ele>748.7</ele>
        <time>2024-11-13T13:23:42.000Z</time>
      </trkpt>
      <trkpt lat="44.13417" lon="3.20057">
        <ele>748.5</ele>
        <time>2024-11-13T13:23:48.000Z</time>
      </trkpt>
      <trkpt lat="44.13408" lon="3.20054">
        <ele>749.5</ele>
        <time>2024-11-13T13:23:52.000Z</time>
      </trkpt>
      <trkpt lat="44.13399" lon="3.20052">
        <ele>750.8</ele>
        <time>2024-11-13T13:23:56.000Z</time>
      </trkpt>
      <trkpt lat="44.13389" lon="3.20048">
        <ele>752</ele>
        <time>2024-11-13T13:24:01.000Z</time>
      </trkpt>
      <trkpt lat="44.13379" lon="3.2004">
        <ele>751.2</ele>
        <time>2024-11-13T13:24:07.000Z</time>
      </trkpt>
      <trkpt lat="44.13372" lon="3.20032">
        <ele>750</ele>
        <time>2024-11-13T13:24:10.000Z</time>
      </trkpt>
      <trkpt lat="44.13364" lon="3.20026">
        <ele>749.6</ele>
        <time>2024-11-13T13:24:12.000Z</time>
      </trkpt>
      <trkpt lat="44.13355" lon="3.20021">
        <ele>748.6</ele>
        <time>2024-11-13T13:24:14.000Z</time>
      </trkpt>
      <trkpt lat="44.13344" lon="3.20015">
        <ele>745.8</ele>
        <time>2024-11-13T13:24:17.000Z</time>
      </trkpt>
      <trkpt lat="44.13332" lon="3.20021">
        <ele>745.3</ele>
        <time>2024-11-13T13:24:21.000Z</time>
      </trkpt>
      <trkpt lat="44.13324" lon="3.20026">
        <ele>747</ele>
        <time>2024-11-13T13:24:24.000Z</time>
      </trkpt>
      <trkpt lat="44.13313" lon="3.20031">
        <ele>748</ele>
        <time>2024-11-13T13:24:28.000Z</time>
      </trkpt>
      <trkpt lat="44.13303" lon="3.2003">
        <ele>748.8</ele>
        <time>2024-11-13T13:24:32.000Z</time>
      </trkpt>
      <trkpt lat="44.13297" lon="3.2002">
        <ele>750.2</ele>
        <time>2024-11-13T13:24:37.000Z</time>
      </trkpt>
      <trkpt lat="44.13286" lon="3.20023">
        <ele>752.6</ele>
        <time>2024-11-13T13:24:43.000Z</time>
      </trkpt>
      <trkpt lat="44.13289" lon="3.20036">
        <ele>752.7</ele>
        <time>2024-11-13T13:24:48.000Z</time>
      </trkpt>
      <trkpt lat="44.13294" lon="3.20047">
        <ele>752.9</ele>
        <time>2024-11-13T13:24:54.000Z</time>
      </trkpt>
      <trkpt lat="44.13298" lon="3.20059">
        <ele>754.4</ele>
        <time>2024-11-13T13:25:00.000Z</time>
      </trkpt>
      <trkpt lat="44.13288" lon="3.20062">
        <ele>758.3</ele>
        <time>2024-11-13T13:25:07.000Z</time>
      </trkpt>
      <trkpt lat="44.1328" lon="3.20057">
        <ele>758.2</ele>
        <time>2024-11-13T13:25:13.000Z</time>
      </trkpt>
      <trkpt lat="44.13271" lon="3.20052">
        <ele>759.2</ele>
        <time>2024-11-13T13:25:19.000Z</time>
      </trkpt>
      <trkpt lat="44.13262" lon="3.20049">
        <ele>761.1</ele>
        <time>2024-11-13T13:25:25.000Z</time>
      </trkpt>
      <trkpt lat="44.13253" lon="3.20045">
        <ele>763.2</ele>
        <time>2024-11-13T13:25:31.000Z</time>
      </trkpt>
      <trkpt lat="44.13243" lon="3.20045">
        <ele>764</ele>
        <time>2024-11-13T13:25:37.000Z</time>
      </trkpt>
      <trkpt lat="44.13234" lon="3.20053">
        <ele>762.7</ele>
        <time>2024-11-13T13:25:41.000Z</time>
      </trkpt>
      <trkpt lat="44.13227" lon="3.20062">
        <ele>760</ele>
        <time>2024-11-13T13:25:44.000Z</time>
      </trkpt>
      <trkpt lat="44.13222" lon="3.20086">
        <ele>752.3</ele>
        <time>2024-11-13T13:27:17.000Z</time>
      </trkpt>
      <trkpt lat="44.13226" lon="3.20098">
        <ele>750.2</ele>
        <time>2024-11-13T13:27:20.000Z</time>
      </trkpt>
      <trkpt lat="44.13242" lon="3.20119">
        <ele>745.8</ele>
        <time>2024-11-13T13:27:26.000Z</time>
      </trkpt>
      <trkpt lat="44.13253" lon="3.20126">
        <ele>745.4</ele>
        <time>2024-11-13T13:27:29.000Z</time>
      </trkpt>
      <trkpt lat="44.13263" lon="3.20131">
        <ele>747.3</ele>
        <time>2024-11-13T13:27:32.000Z</time>
      </trkpt>
      <trkpt lat="44.13272" lon="3.20137">
        <ele>747.1</ele>
        <time>2024-11-13T13:27:35.000Z</time>
      </trkpt>
      <trkpt lat="44.1328" lon="3.20146">
        <ele>746.8</ele>
        <time>2024-11-13T13:27:38.000Z</time>
      </trkpt>
      <trkpt lat="44.13287" lon="3.20158">
        <ele>745.1</ele>
        <time>2024-11-13T13:27:41.000Z</time>
      </trkpt>
      <trkpt lat="44.13294" lon="3.2017">
        <ele>742.2</ele>
        <time>2024-11-13T13:27:44.000Z</time>
      </trkpt>
      <trkpt lat="44.13297" lon="3.20182">
        <ele>742</ele>
        <time>2024-11-13T13:27:47.000Z</time>
      </trkpt>
      <trkpt lat="44.13294" lon="3.20196">
        <ele>739.4</ele>
        <time>2024-11-13T13:27:51.000Z</time>
      </trkpt>
      <trkpt lat="44.13286" lon="3.20204">
        <ele>734.7</ele>
        <time>2024-11-13T13:27:58.000Z</time>
      </trkpt>
      <trkpt lat="44.13295" lon="3.2021">
        <ele>736.8</ele>
        <time>2024-11-13T13:28:20.000Z</time>
      </trkpt>
      <trkpt lat="44.13304" lon="3.20215">
        <ele>739</ele>
        <time>2024-11-13T13:28:24.000Z</time>
      </trkpt>
      <trkpt lat="44.13314" lon="3.20215">
        <ele>740.5</ele>
        <time>2024-11-13T13:28:28.000Z</time>
      </trkpt>
      <trkpt lat="44.13325" lon="3.20217">
        <ele>741.4</ele>
        <time>2024-11-13T13:28:33.000Z</time>
      </trkpt>
      <trkpt lat="44.13333" lon="3.20221">
        <ele>741.4</ele>
        <time>2024-11-13T13:28:38.000Z</time>
      </trkpt>
      <trkpt lat="44.13341" lon="3.20229">
        <ele>741.3</ele>
        <time>2024-11-13T13:28:45.000Z</time>
      </trkpt>
      <trkpt lat="44.13344" lon="3.20241">
        <ele>740.4</ele>
        <time>2024-11-13T13:28:52.000Z</time>
      </trkpt>
      <trkpt lat="44.13343" lon="3.20254">
        <ele>739.2</ele>
        <time>2024-11-13T13:28:57.000Z</time>
      </trkpt>
      <trkpt lat="44.13337" lon="3.20264">
        <ele>738.7</ele>
        <time>2024-11-13T13:29:01.000Z</time>
      </trkpt>
      <trkpt lat="44.13328" lon="3.20274">
        <ele>737.8</ele>
        <time>2024-11-13T13:29:06.000Z</time>
      </trkpt>
      <trkpt lat="44.1332" lon="3.2028">
        <ele>736.5</ele>
        <time>2024-11-13T13:29:10.000Z</time>
      </trkpt>
      <trkpt lat="44.1331" lon="3.20284">
        <ele>734.6</ele>
        <time>2024-11-13T13:29:15.000Z</time>
      </trkpt>
      <trkpt lat="44.133" lon="3.20287">
        <ele>731.9</ele>
        <time>2024-11-13T13:29:20.000Z</time>
      </trkpt>
      <trkpt lat="44.13304" lon="3.203">
        <ele>736</ele>
        <time>2024-11-13T13:29:26.000Z</time>
      </trkpt>
      <trkpt lat="44.13304" lon="3.20315">
        <ele>737</ele>
        <time>2024-11-13T13:29:31.000Z</time>
      </trkpt>
      <trkpt lat="44.13294" lon="3.20319">
        <ele>733.9</ele>
        <time>2024-11-13T13:29:36.000Z</time>
      </trkpt>
      <trkpt lat="44.13282" lon="3.20317">
        <ele>730</ele>
        <time>2024-11-13T13:29:40.000Z</time>
      </trkpt>
      <trkpt lat="44.1327" lon="3.20317">
        <ele>727.6</ele>
        <time>2024-11-13T13:29:44.000Z</time>
      </trkpt>
      <trkpt lat="44.1326" lon="3.20318">
        <ele>726.4</ele>
        <time>2024-11-13T13:29:47.000Z</time>
      </trkpt>
      <trkpt lat="44.1325" lon="3.20317">
        <ele>724.8</ele>
        <time>2024-11-13T13:29:50.000Z</time>
      </trkpt>
      <trkpt lat="44.13241" lon="3.2031">
        <ele>726.8</ele>
        <time>2024-11-13T13:29:53.000Z</time>
      </trkpt>
      <trkpt lat="44.13234" lon="3.203">
        <ele>727.4</ele>
        <time>2024-11-13T13:29:56.000Z</time>
      </trkpt>
      <trkpt lat="44.13228" lon="3.2029">
        <ele>725.8</ele>
        <time>2024-11-13T13:29:59.000Z</time>
      </trkpt>
      <trkpt lat="44.13221" lon="3.20282">
        <ele>724</ele>
        <time>2024-11-13T13:30:04.000Z</time>
      </trkpt>
      <trkpt lat="44.13212" lon="3.2028">
        <ele>724.8</ele>
        <time>2024-11-13T13:30:09.000Z</time>
      </trkpt>
      <trkpt lat="44.13203" lon="3.20279">
        <ele>726.2</ele>
        <time>2024-11-13T13:30:13.000Z</time>
      </trkpt>
      <trkpt lat="44.13194" lon="3.2028">
        <ele>728.5</ele>
        <time>2024-11-13T13:30:18.000Z</time>
      </trkpt>
      <trkpt lat="44.13184" lon="3.20281">
        <ele>731.1</ele>
        <time>2024-11-13T13:30:25.000Z</time>
      </trkpt>
      <trkpt lat="44.13174" lon="3.20285">
        <ele>734.7</ele>
        <time>2024-11-13T13:30:33.000Z</time>
      </trkpt>
      <trkpt lat="44.13166" lon="3.20282">
        <ele>734.9</ele>
        <time>2024-11-13T13:30:38.000Z</time>
      </trkpt>
      <trkpt lat="44.13158" lon="3.20275">
        <ele>731.6</ele>
        <time>2024-11-13T13:30:42.000Z</time>
      </trkpt>
      <trkpt lat="44.13148" lon="3.20279">
        <ele>730.9</ele>
        <time>2024-11-13T13:30:49.000Z</time>
      </trkpt>
      <trkpt lat="44.13143" lon="3.2029">
        <ele>733.2</ele>
        <time>2024-11-13T13:30:55.000Z</time>
      </trkpt>
      <trkpt lat="44.13137" lon="3.20301">
        <ele>736.2</ele>
        <time>2024-11-13T13:31:03.000Z</time>
      </trkpt>
      <trkpt lat="44.13135" lon="3.20315">
        <ele>738.9</ele>
        <time>2024-11-13T13:31:10.000Z</time>
      </trkpt>
      <trkpt lat="44.13136" lon="3.2033">
        <ele>739.9</ele>
        <time>2024-11-13T13:31:16.000Z</time>
      </trkpt>
      <trkpt lat="44.13137" lon="3.20344">
        <ele>738.9</ele>
        <time>2024-11-13T13:31:21.000Z</time>
      </trkpt>
      <trkpt lat="44.13129" lon="3.20351">
        <ele>737.7</ele>
        <time>2024-11-13T13:31:28.000Z</time>
      </trkpt>
      <trkpt lat="44.13124" lon="3.20363">
        <ele>735.7</ele>
        <time>2024-11-13T13:31:35.000Z</time>
      </trkpt>
      <trkpt lat="44.13131" lon="3.20372">
        <ele>736.9</ele>
        <time>2024-11-13T13:31:43.000Z</time>
      </trkpt>
      <trkpt lat="44.13124" lon="3.20364">
        <ele>735.8</ele>
        <time>2024-11-13T13:32:51.000Z</time>
      </trkpt>
      <trkpt lat="44.13114" lon="3.20362">
        <ele>734.5</ele>
        <time>2024-11-13T13:32:56.000Z</time>
      </trkpt>
      <trkpt lat="44.13104" lon="3.20358">
        <ele>735.3</ele>
        <time>2024-11-13T13:33:00.000Z</time>
      </trkpt>
      <trkpt lat="44.13094" lon="3.2036">
        <ele>735.5</ele>
        <time>2024-11-13T13:33:05.000Z</time>
      </trkpt>
      <trkpt lat="44.13084" lon="3.20361">
        <ele>736</ele>
        <time>2024-11-13T13:33:10.000Z</time>
      </trkpt>
      <trkpt lat="44.13074" lon="3.20366">
        <ele>735.6</ele>
        <time>2024-11-13T13:33:14.000Z</time>
      </trkpt>
      <trkpt lat="44.13073" lon="3.20412">
        <ele>728.7</ele>
        <time>2024-11-13T13:33:45.000Z</time>
      </trkpt>
      <trkpt lat="44.13079" lon="3.20433">
        <ele>727.8</ele>
        <time>2024-11-13T13:33:50.000Z</time>
      </trkpt>
      <trkpt lat="44.13085" lon="3.20444">
        <ele>727.3</ele>
        <time>2024-11-13T13:33:55.000Z</time>
      </trkpt>
      <trkpt lat="44.13093" lon="3.20454">
        <ele>728.6</ele>
        <time>2024-11-13T13:34:02.000Z</time>
      </trkpt>
      <trkpt lat="44.13099" lon="3.20464">
        <ele>729.2</ele>
        <time>2024-11-13T13:34:06.000Z</time>
      </trkpt>
      <trkpt lat="44.13106" lon="3.20472">
        <ele>729.2</ele>
        <time>2024-11-13T13:34:10.000Z</time>
      </trkpt>
      <trkpt lat="44.13113" lon="3.20484">
        <ele>731.2</ele>
        <time>2024-11-13T13:34:14.000Z</time>
      </trkpt>
      <trkpt lat="44.1312" lon="3.20494">
        <ele>732.9</ele>
        <time>2024-11-13T13:34:18.000Z</time>
      </trkpt>
      <trkpt lat="44.13125" lon="3.20505">
        <ele>732.8</ele>
        <time>2024-11-13T13:34:24.000Z</time>
      </trkpt>
      <trkpt lat="44.13124" lon="3.20518">
        <ele>730.9</ele>
        <time>2024-11-13T13:34:30.000Z</time>
      </trkpt>
      <trkpt lat="44.13122" lon="3.2053">
        <ele>729.2</ele>
        <time>2024-11-13T13:34:35.000Z</time>
      </trkpt>
      <trkpt lat="44.1312" lon="3.20544">
        <ele>727.5</ele>
        <time>2024-11-13T13:34:38.000Z</time>
      </trkpt>
      <trkpt lat="44.13122" lon="3.20559">
        <ele>726.7</ele>
        <time>2024-11-13T13:34:45.000Z</time>
      </trkpt>
      <trkpt lat="44.13129" lon="3.20569">
        <ele>728.1</ele>
        <time>2024-11-13T13:34:51.000Z</time>
      </trkpt>
      <trkpt lat="44.1313" lon="3.20583">
        <ele>728.7</ele>
        <time>2024-11-13T13:34:57.000Z</time>
      </trkpt>
      <trkpt lat="44.13139" lon="3.20591">
        <ele>728.8</ele>
        <time>2024-11-13T13:35:04.000Z</time>
      </trkpt>
      <trkpt lat="44.13147" lon="3.20602">
        <ele>727.9</ele>
        <time>2024-11-13T13:35:08.000Z</time>
      </trkpt>
      <trkpt lat="44.13156" lon="3.20616">
        <ele>726.5</ele>
        <time>2024-11-13T13:35:11.000Z</time>
      </trkpt>
      <trkpt lat="44.13162" lon="3.20626">
        <ele>725.9</ele>
        <time>2024-11-13T13:35:13.000Z</time>
      </trkpt>
      <trkpt lat="44.13169" lon="3.20636">
        <ele>724.6</ele>
        <time>2024-11-13T13:35:15.000Z</time>
      </trkpt>
      <trkpt lat="44.13178" lon="3.20645">
        <ele>725.5</ele>
        <time>2024-11-13T13:35:18.000Z</time>
      </trkpt>
      <trkpt lat="44.13174" lon="3.20656">
        <ele>726.7</ele>
        <time>2024-11-13T13:35:26.000Z</time>
      </trkpt>
      <trkpt lat="44.13164" lon="3.20659">
        <ele>727.2</ele>
        <time>2024-11-13T13:35:31.000Z</time>
      </trkpt>
      <trkpt lat="44.13155" lon="3.20658">
        <ele>728.3</ele>
        <time>2024-11-13T13:35:35.000Z</time>
      </trkpt>
      <trkpt lat="44.13145" lon="3.20657">
        <ele>729.5</ele>
        <time>2024-11-13T13:35:41.000Z</time>
      </trkpt>
      <trkpt lat="44.13136" lon="3.20658">
        <ele>730.5</ele>
        <time>2024-11-13T13:35:47.000Z</time>
      </trkpt>
      <trkpt lat="44.13126" lon="3.20659">
        <ele>731.1</ele>
        <time>2024-11-13T13:35:53.000Z</time>
      </trkpt>
      <trkpt lat="44.13116" lon="3.20659">
        <ele>731.5</ele>
        <time>2024-11-13T13:36:00.000Z</time>
      </trkpt>
      <trkpt lat="44.13107" lon="3.20663">
        <ele>731</ele>
        <time>2024-11-13T13:36:03.000Z</time>
      </trkpt>
      <trkpt lat="44.13097" lon="3.20665">
        <ele>729</ele>
        <time>2024-11-13T13:36:05.000Z</time>
      </trkpt>
      <trkpt lat="44.13088" lon="3.20668">
        <ele>727.2</ele>
        <time>2024-11-13T13:36:07.000Z</time>
      </trkpt>
      <trkpt lat="44.13078" lon="3.20667">
        <ele>725.9</ele>
        <time>2024-11-13T13:36:09.000Z</time>
      </trkpt>
      <trkpt lat="44.13068" lon="3.20662">
        <ele>725.3</ele>
        <time>2024-11-13T13:36:11.000Z</time>
      </trkpt>
      <trkpt lat="44.1306" lon="3.20659">
        <ele>724.5</ele>
        <time>2024-11-13T13:36:13.000Z</time>
      </trkpt>
      <trkpt lat="44.1305" lon="3.20652">
        <ele>723.9</ele>
        <time>2024-11-13T13:36:16.000Z</time>
      </trkpt>
      <trkpt lat="44.13038" lon="3.20647">
        <ele>723.8</ele>
        <time>2024-11-13T13:36:20.000Z</time>
      </trkpt>
      <trkpt lat="44.13029" lon="3.20648">
        <ele>724.6</ele>
        <time>2024-11-13T13:36:23.000Z</time>
      </trkpt>
      <trkpt lat="44.13019" lon="3.20651">
        <ele>724.8</ele>
        <time>2024-11-13T13:36:27.000Z</time>
      </trkpt>
      <trkpt lat="44.13009" lon="3.20651">
        <ele>724</ele>
        <time>2024-11-13T13:36:31.000Z</time>
      </trkpt>
      <trkpt lat="44.13002" lon="3.20661">
        <ele>725.3</ele>
        <time>2024-11-13T13:36:38.000Z</time>
      </trkpt>
      <trkpt lat="44.12994" lon="3.20669">
        <ele>726.2</ele>
        <time>2024-11-13T13:36:47.000Z</time>
      </trkpt>
      <trkpt lat="44.12984" lon="3.20666">
        <ele>724.7</ele>
        <time>2024-11-13T13:37:02.000Z</time>
      </trkpt>
      <trkpt lat="44.12975" lon="3.2067">
        <ele>725.1</ele>
        <time>2024-11-13T13:37:08.000Z</time>
      </trkpt>
      <trkpt lat="44.12965" lon="3.20673">
        <ele>727.5</ele>
        <time>2024-11-13T13:37:14.000Z</time>
      </trkpt>
      <trkpt lat="44.12964" lon="3.20685">
        <ele>730.2</ele>
        <time>2024-11-13T13:37:29.000Z</time>
      </trkpt>
      <trkpt lat="44.12961" lon="3.20697">
        <ele>732.4</ele>
        <time>2024-11-13T13:37:39.000Z</time>
      </trkpt>
      <trkpt lat="44.12954" lon="3.20706">
        <ele>733.1</ele>
        <time>2024-11-13T13:37:49.000Z</time>
      </trkpt>
      <trkpt lat="44.12943" lon="3.20708">
        <ele>732.1</ele>
        <time>2024-11-13T13:37:53.000Z</time>
      </trkpt>
      <trkpt lat="44.12932" lon="3.20711">
        <ele>729.8</ele>
        <time>2024-11-13T13:37:57.000Z</time>
      </trkpt>
      <trkpt lat="44.12928" lon="3.20725">
        <ele>729.8</ele>
        <time>2024-11-13T13:38:01.000Z</time>
      </trkpt>
      <trkpt lat="44.12918" lon="3.20726">
        <ele>728.5</ele>
        <time>2024-11-13T13:38:04.000Z</time>
      </trkpt>
      <trkpt lat="44.12906" lon="3.20728">
        <ele>727.2</ele>
        <time>2024-11-13T13:38:07.000Z</time>
      </trkpt>
      <trkpt lat="44.12897" lon="3.20731">
        <ele>726.5</ele>
        <time>2024-11-13T13:38:10.000Z</time>
      </trkpt>
      <trkpt lat="44.12888" lon="3.20728">
        <ele>724.4</ele>
        <time>2024-11-13T13:38:15.000Z</time>
      </trkpt>
      <trkpt lat="44.12878" lon="3.20723">
        <ele>720.9</ele>
        <time>2024-11-13T13:38:20.000Z</time>
      </trkpt>
      <trkpt lat="44.1287" lon="3.20729">
        <ele>719.8</ele>
        <time>2024-11-13T13:38:26.000Z</time>
      </trkpt>
      <trkpt lat="44.12866" lon="3.20717">
        <ele>717.1</ele>
        <time>2024-11-13T13:38:32.000Z</time>
      </trkpt>
      <trkpt lat="44.12865" lon="3.20703">
        <ele>715.6</ele>
        <time>2024-11-13T13:38:37.000Z</time>
      </trkpt>
      <trkpt lat="44.12864" lon="3.2069">
        <ele>713.8</ele>
        <time>2024-11-13T13:38:42.000Z</time>
      </trkpt>
      <trkpt lat="44.12861" lon="3.20678">
        <ele>711.2</ele>
        <time>2024-11-13T13:39:33.000Z</time>
      </trkpt>
      <trkpt lat="44.12855" lon="3.20665">
        <ele>707.9</ele>
        <time>2024-11-13T13:39:37.000Z</time>
      </trkpt>
      <trkpt lat="44.12847" lon="3.20656">
        <ele>705.8</ele>
        <time>2024-11-13T13:39:41.000Z</time>
      </trkpt>
      <trkpt lat="44.12841" lon="3.20645">
        <ele>705</ele>
        <time>2024-11-13T13:42:03.000Z</time>
      </trkpt>
      <trkpt lat="44.12843" lon="3.20632">
        <ele>706.7</ele>
        <time>2024-11-13T13:42:10.000Z</time>
      </trkpt>
      <trkpt lat="44.12844" lon="3.20618">
        <ele>708.5</ele>
        <time>2024-11-13T13:42:18.000Z</time>
      </trkpt>
      <trkpt lat="44.12849" lon="3.20607">
        <ele>709.9</ele>
        <time>2024-11-13T13:42:27.000Z</time>
      </trkpt>
      <trkpt lat="44.12856" lon="3.20598">
        <ele>709.9</ele>
        <time>2024-11-13T13:42:40.000Z</time>
      </trkpt>
      <trkpt lat="44.12864" lon="3.20592">
        <ele>709.5</ele>
        <time>2024-11-13T13:42:48.000Z</time>
      </trkpt>
      <trkpt lat="44.12873" lon="3.20585">
        <ele>709.1</ele>
        <time>2024-11-13T13:42:56.000Z</time>
      </trkpt>
      <trkpt lat="44.12882" lon="3.20584">
        <ele>709</ele>
        <time>2024-11-13T13:43:03.000Z</time>
      </trkpt>
      <trkpt lat="44.12891" lon="3.20581">
        <ele>709.4</ele>
        <time>2024-11-13T13:43:09.000Z</time>
      </trkpt>
      <trkpt lat="44.12901" lon="3.20581">
        <ele>709.6</ele>
        <time>2024-11-13T13:43:15.000Z</time>
      </trkpt>
      <trkpt lat="44.1291" lon="3.20578">
        <ele>709.9</ele>
        <time>2024-11-13T13:43:21.000Z</time>
      </trkpt>
      <trkpt lat="44.1292" lon="3.20574">
        <ele>710.1</ele>
        <time>2024-11-13T13:43:27.000Z</time>
      </trkpt>
      <trkpt lat="44.12929" lon="3.20574">
        <ele>710.3</ele>
        <time>2024-11-13T13:43:36.000Z</time>
      </trkpt>
      <trkpt lat="44.12929" lon="3.20574">
        <ele>710.3</ele>
        <time>2024-11-13T13:45:03.000Z</time>
      </trkpt>
      <trkpt lat="44.12939" lon="3.20575">
        <ele>710.5</ele>
        <time>2024-11-13T13:45:08.000Z</time>
      </trkpt>
      <trkpt lat="44.12948" lon="3.20574">
        <ele>710.9</ele>
        <time>2024-11-13T13:45:13.000Z</time>
      </trkpt>
      <trkpt lat="44.12958" lon="3.20576">
        <ele>711.2</ele>
        <time>2024-11-13T13:45:18.000Z</time>
      </trkpt>
      <trkpt lat="44.12967" lon="3.20572">
        <ele>711.8</ele>
        <time>2024-11-13T13:45:23.000Z</time>
      </trkpt>
      <trkpt lat="44.12974" lon="3.20563">
        <ele>712.1</ele>
        <time>2024-11-13T13:45:28.000Z</time>
      </trkpt>
      <trkpt lat="44.12979" lon="3.20551">
        <ele>712.6</ele>
        <time>2024-11-13T13:45:33.000Z</time>
      </trkpt>
      <trkpt lat="44.12984" lon="3.20539">
        <ele>713.5</ele>
        <time>2024-11-13T13:45:38.000Z</time>
      </trkpt>
      <trkpt lat="44.12986" lon="3.20526">
        <ele>714.1</ele>
        <time>2024-11-13T13:45:43.000Z</time>
      </trkpt>
      <trkpt lat="44.12982" lon="3.20513">
        <ele>714.7</ele>
        <time>2024-11-13T13:45:50.000Z</time>
      </trkpt>
      <trkpt lat="44.12976" lon="3.20502">
        <ele>715</ele>
        <time>2024-11-13T13:45:57.000Z</time>
      </trkpt>
      <trkpt lat="44.12974" lon="3.20489">
        <ele>716.6</ele>
        <time>2024-11-13T13:46:05.000Z</time>
      </trkpt>
      <trkpt lat="44.12971" lon="3.20476">
        <ele>718.7</ele>
        <time>2024-11-13T13:46:13.000Z</time>
      </trkpt>
      <trkpt lat="44.1297" lon="3.20462">
        <ele>720.8</ele>
        <time>2024-11-13T13:46:22.000Z</time>
      </trkpt>
      <trkpt lat="44.12971" lon="3.20449">
        <ele>721.9</ele>
        <time>2024-11-13T13:46:31.000Z</time>
      </trkpt>
      <trkpt lat="44.12975" lon="3.20437">
        <ele>723.4</ele>
        <time>2024-11-13T13:46:40.000Z</time>
      </trkpt>
      <trkpt lat="44.12978" lon="3.20425">
        <ele>725.4</ele>
        <time>2024-11-13T13:46:50.000Z</time>
      </trkpt>
      <trkpt lat="44.12979" lon="3.20412">
        <ele>727.6</ele>
        <time>2024-11-13T13:47:02.000Z</time>
      </trkpt>
      <trkpt lat="44.12986" lon="3.20402">
        <ele>727.9</ele>
        <time>2024-11-13T13:47:11.000Z</time>
      </trkpt>
      <trkpt lat="44.12995" lon="3.20399">
        <ele>727</ele>
        <time>2024-11-13T13:47:17.000Z</time>
      </trkpt>
      <trkpt lat="44.13004" lon="3.20393">
        <ele>727.4</ele>
        <time>2024-11-13T13:47:21.000Z</time>
      </trkpt>
      <trkpt lat="44.13015" lon="3.20393">
        <ele>727.7</ele>
        <time>2024-11-13T13:47:26.000Z</time>
      </trkpt>
      <trkpt lat="44.13024" lon="3.20391">
        <ele>728.5</ele>
        <time>2024-11-13T13:47:32.000Z</time>
      </trkpt>
      <trkpt lat="44.13034" lon="3.2039">
        <ele>728.6</ele>
        <time>2024-11-13T13:47:37.000Z</time>
      </trkpt>
      <trkpt lat="44.13043" lon="3.20391">
        <ele>728.2</ele>
        <time>2024-11-13T13:47:41.000Z</time>
      </trkpt>
      <trkpt lat="44.13052" lon="3.2039">
        <ele>728</ele>
        <time>2024-11-13T13:47:47.000Z</time>
      </trkpt>
      <trkpt lat="44.13061" lon="3.20388">
        <ele>729.6</ele>
        <time>2024-11-13T13:47:54.000Z</time>
      </trkpt>
      <trkpt lat="44.13069" lon="3.20395">
        <ele>730.2</ele>
        <time>2024-11-13T13:48:01.000Z</time>
      </trkpt>
      <trkpt lat="44.1307" lon="3.2041">
        <ele>728.5</ele>
        <time>2024-11-13T13:48:07.000Z</time>
      </trkpt>
      <trkpt lat="44.13076" lon="3.20421">
        <ele>728.5</ele>
        <time>2024-11-13T13:48:25.000Z</time>
      </trkpt>
      <trkpt lat="44.13085" lon="3.20431">
        <ele>728.8</ele>
        <time>2024-11-13T13:48:30.000Z</time>
      </trkpt>
      <trkpt lat="44.13093" lon="3.20443">
        <ele>728.2</ele>
        <time>2024-11-13T13:48:34.000Z</time>
      </trkpt>
      <trkpt lat="44.13096" lon="3.20455">
        <ele>728.8</ele>
        <time>2024-11-13T13:48:37.000Z</time>
      </trkpt>
      <trkpt lat="44.13103" lon="3.20468">
        <ele>729.3</ele>
        <time>2024-11-13T13:48:41.000Z</time>
      </trkpt>
      <trkpt lat="44.13111" lon="3.2048">
        <ele>730.4</ele>
        <time>2024-11-13T13:48:45.000Z</time>
      </trkpt>
      <trkpt lat="44.13118" lon="3.2049">
        <ele>732.3</ele>
        <time>2024-11-13T13:48:49.000Z</time>
      </trkpt>
      <trkpt lat="44.1312" lon="3.20503">
        <ele>733.2</ele>
        <time>2024-11-13T13:48:55.000Z</time>
      </trkpt>
      <trkpt lat="44.13119" lon="3.20516">
        <ele>731.2</ele>
        <time>2024-11-13T13:49:01.000Z</time>
      </trkpt>
      <trkpt lat="44.13117" lon="3.2053">
        <ele>728.9</ele>
        <time>2024-11-13T13:49:06.000Z</time>
      </trkpt>
      <trkpt lat="44.1312" lon="3.20544">
        <ele>727.5</ele>
        <time>2024-11-13T13:49:09.000Z</time>
      </trkpt>
      <trkpt lat="44.13125" lon="3.20557">
        <ele>727.1</ele>
        <time>2024-11-13T13:49:14.000Z</time>
      </trkpt>
      <trkpt lat="44.13127" lon="3.20571">
        <ele>727.9</ele>
        <time>2024-11-13T13:49:20.000Z</time>
      </trkpt>
      <trkpt lat="44.13132" lon="3.20582">
        <ele>728.9</ele>
        <time>2024-11-13T13:49:26.000Z</time>
      </trkpt>
      <trkpt lat="44.13141" lon="3.2059">
        <ele>729.2</ele>
        <time>2024-11-13T13:49:32.000Z</time>
      </trkpt>
      <trkpt lat="44.13148" lon="3.20601">
        <ele>728.4</ele>
        <time>2024-11-13T13:49:35.000Z</time>
      </trkpt>
      <trkpt lat="44.13157" lon="3.20614">
        <ele>726.7</ele>
        <time>2024-11-13T13:49:38.000Z</time>
      </trkpt>
      <trkpt lat="44.13162" lon="3.20626">
        <ele>725.9</ele>
        <time>2024-11-13T13:49:40.000Z</time>
      </trkpt>
      <trkpt lat="44.13172" lon="3.20637">
        <ele>724.7</ele>
        <time>2024-11-13T13:49:43.000Z</time>
      </trkpt>
      <trkpt lat="44.13181" lon="3.20642">
        <ele>725.4</ele>
        <time>2024-11-13T13:49:47.000Z</time>
      </trkpt>
      <trkpt lat="44.13173" lon="3.20651">
        <ele>726</ele>
        <time>2024-11-13T13:50:08.000Z</time>
      </trkpt>
      <trkpt lat="44.13162" lon="3.20654">
        <ele>726.7</ele>
        <time>2024-11-13T13:50:13.000Z</time>
      </trkpt>
      <trkpt lat="44.13153" lon="3.20653">
        <ele>727.8</ele>
        <time>2024-11-13T13:50:18.000Z</time>
      </trkpt>
      <trkpt lat="44.13143" lon="3.20652">
        <ele>728.8</ele>
        <time>2024-11-13T13:50:25.000Z</time>
      </trkpt>
      <trkpt lat="44.13133" lon="3.20654">
        <ele>730.1</ele>
        <time>2024-11-13T13:50:33.000Z</time>
      </trkpt>
      <trkpt lat="44.13123" lon="3.20653">
        <ele>730.7</ele>
        <time>2024-11-13T13:50:40.000Z</time>
      </trkpt>
      <trkpt lat="44.13114" lon="3.20655">
        <ele>731.4</ele>
        <time>2024-11-13T13:51:13.000Z</time>
      </trkpt>
      <trkpt lat="44.13102" lon="3.20656">
        <ele>729.9</ele>
        <time>2024-11-13T13:51:18.000Z</time>
      </trkpt>
      <trkpt lat="44.13093" lon="3.20658">
        <ele>728.1</ele>
        <time>2024-11-13T13:51:21.000Z</time>
      </trkpt>
      <trkpt lat="44.13081" lon="3.20661">
        <ele>726.1</ele>
        <time>2024-11-13T13:51:25.000Z</time>
      </trkpt>
      <trkpt lat="44.13071" lon="3.20659">
        <ele>725.3</ele>
        <time>2024-11-13T13:51:29.000Z</time>
      </trkpt>
      <trkpt lat="44.13061" lon="3.20655">
        <ele>724.2</ele>
        <time>2024-11-13T13:51:34.000Z</time>
      </trkpt>
      <trkpt lat="44.1305" lon="3.20647">
        <ele>723.2</ele>
        <time>2024-11-13T13:51:40.000Z</time>
      </trkpt>
      <trkpt lat="44.1304" lon="3.20641">
        <ele>722.5</ele>
        <time>2024-11-13T13:51:44.000Z</time>
      </trkpt>
      <trkpt lat="44.13029" lon="3.20642">
        <ele>722.8</ele>
        <time>2024-11-13T13:51:48.000Z</time>
      </trkpt>
      <trkpt lat="44.1302" lon="3.20647">
        <ele>723.7</ele>
        <time>2024-11-13T13:51:53.000Z</time>
      </trkpt>
      <trkpt lat="44.1301" lon="3.20647">
        <ele>723.2</ele>
        <time>2024-11-13T13:51:58.000Z</time>
      </trkpt>
      <trkpt lat="44.12999" lon="3.20649">
        <ele>722.8</ele>
        <time>2024-11-13T13:52:16.000Z</time>
      </trkpt>
      <trkpt lat="44.12997" lon="3.20633">
        <ele>720.2</ele>
        <time>2024-11-13T13:52:22.000Z</time>
      </trkpt>
      <trkpt lat="44.12992" lon="3.20618">
        <ele>717.6</ele>
        <time>2024-11-13T13:52:26.000Z</time>
      </trkpt>
      <trkpt lat="44.12984" lon="3.20609">
        <ele>715.5</ele>
        <time>2024-11-13T13:52:29.000Z</time>
      </trkpt>
      <trkpt lat="44.12975" lon="3.20605">
        <ele>714.5</ele>
        <time>2024-11-13T13:52:32.000Z</time>
      </trkpt>
      <trkpt lat="44.12964" lon="3.20602">
        <ele>714</ele>
        <time>2024-11-13T13:52:36.000Z</time>
      </trkpt>
      <trkpt lat="44.12959" lon="3.20592">
        <ele>712.3</ele>
        <time>2024-11-13T13:52:48.000Z</time>
      </trkpt>
      <trkpt lat="44.12957" lon="3.20579">
        <ele>711.1</ele>
        <time>2024-11-13T13:52:55.000Z</time>
      </trkpt>
      <trkpt lat="44.12948" lon="3.20573">
        <ele>710.9</ele>
        <time>2024-11-13T13:53:04.000Z</time>
      </trkpt>
      <trkpt lat="44.12937" lon="3.20573">
        <ele>710.6</ele>
        <time>2024-11-13T13:53:09.000Z</time>
      </trkpt>
      <trkpt lat="44.12929" lon="3.20579">
        <ele>710.1</ele>
        <time>2024-11-13T13:53:13.000Z</time>
      </trkpt>
      <trkpt lat="44.12926" lon="3.20592">
        <ele>711.5</ele>
        <time>2024-11-13T13:53:18.000Z</time>
      </trkpt>
      <trkpt lat="44.1292" lon="3.20604">
        <ele>713.2</ele>
        <time>2024-11-13T13:53:24.000Z</time>
      </trkpt>
      <trkpt lat="44.12911" lon="3.2061">
        <ele>714.2</ele>
        <time>2024-11-13T13:53:32.000Z</time>
      </trkpt>
      <trkpt lat="44.12917" lon="3.20619">
        <ele>716.6</ele>
        <time>2024-11-13T13:53:46.000Z</time>
      </trkpt>
      <trkpt lat="44.12928" lon="3.20624">
        <ele>718.4</ele>
        <time>2024-11-13T13:54:11.000Z</time>
      </trkpt>
      <trkpt lat="44.12934" lon="3.20633">
        <ele>720.9</ele>
        <time>2024-11-13T13:54:27.000Z</time>
      </trkpt>
      <trkpt lat="44.12943" lon="3.20631">
        <ele>720.2</ele>
        <time>2024-11-13T13:54:39.000Z</time>
      </trkpt>
      <trkpt lat="44.12949" lon="3.20642">
        <ele>723</ele>
        <time>2024-11-13T13:55:02.000Z</time>
      </trkpt>
      <trkpt lat="44.12959" lon="3.20649">
        <ele>724</ele>
        <time>2024-11-13T13:55:06.000Z</time>
      </trkpt>
      <trkpt lat="44.12968" lon="3.20653">
        <ele>723.2</ele>
        <time>2024-11-13T13:55:11.000Z</time>
      </trkpt>
      <trkpt lat="44.12976" lon="3.2066">
        <ele>723.4</ele>
        <time>2024-11-13T13:55:21.000Z</time>
      </trkpt>
      <trkpt lat="44.1297" lon="3.2067">
        <ele>725.6</ele>
        <time>2024-11-13T13:55:33.000Z</time>
      </trkpt>
      <trkpt lat="44.12961" lon="3.2067">
        <ele>728.1</ele>
        <time>2024-11-13T13:55:43.000Z</time>
      </trkpt>
      <trkpt lat="44.1296" lon="3.20682">
        <ele>730.2</ele>
        <time>2024-11-13T13:56:11.000Z</time>
      </trkpt>
      <trkpt lat="44.12959" lon="3.20695">
        <ele>732</ele>
        <time>2024-11-13T13:56:26.000Z</time>
      </trkpt>
      <trkpt lat="44.12953" lon="3.20704">
        <ele>732.9</ele>
        <time>2024-11-13T13:56:46.000Z</time>
      </trkpt>
      <trkpt lat="44.12943" lon="3.20706">
        <ele>732.1</ele>
        <time>2024-11-13T13:56:58.000Z</time>
      </trkpt>
      <trkpt lat="44.12933" lon="3.20706">
        <ele>729.9</ele>
        <time>2024-11-13T13:57:08.000Z</time>
      </trkpt>
      <trkpt lat="44.12927" lon="3.20716">
        <ele>729</ele>
        <time>2024-11-13T13:57:19.000Z</time>
      </trkpt>
      <trkpt lat="44.12933" lon="3.20725">
        <ele>730.8</ele>
        <time>2024-11-13T13:57:33.000Z</time>
      </trkpt>
      <trkpt lat="44.12937" lon="3.20737">
        <ele>732.5</ele>
        <time>2024-11-13T13:57:51.000Z</time>
      </trkpt>
      <trkpt lat="44.12934" lon="3.20751">
        <ele>733.8</ele>
        <time>2024-11-13T13:58:03.000Z</time>
      </trkpt>
      <trkpt lat="44.1293" lon="3.20763">
        <ele>734.9</ele>
        <time>2024-11-13T13:58:10.000Z</time>
      </trkpt>
      <trkpt lat="44.12927" lon="3.20775">
        <ele>736.1</ele>
        <time>2024-11-13T13:58:17.000Z</time>
      </trkpt>
      <trkpt lat="44.12926" lon="3.20788">
        <ele>735.5</ele>
        <time>2024-11-13T13:58:24.000Z</time>
      </trkpt>
      <trkpt lat="44.1292" lon="3.20798">
        <ele>734.7</ele>
        <time>2024-11-13T13:58:30.000Z</time>
      </trkpt>
      <trkpt lat="44.12915" lon="3.2081">
        <ele>733.7</ele>
        <time>2024-11-13T13:58:35.000Z</time>
      </trkpt>
      <trkpt lat="44.12912" lon="3.20824">
        <ele>732.9</ele>
        <time>2024-11-13T13:58:40.000Z</time>
      </trkpt>
      <trkpt lat="44.12906" lon="3.20836">
        <ele>732.4</ele>
        <time>2024-11-13T13:58:44.000Z</time>
      </trkpt>
      <trkpt lat="44.12915" lon="3.20845">
        <ele>730.2</ele>
        <time>2024-11-13T13:58:54.000Z</time>
      </trkpt>
      <trkpt lat="44.12924" lon="3.20844">
        <ele>728</ele>
        <time>2024-11-13T13:58:57.000Z</time>
      </trkpt>
      <trkpt lat="44.12933" lon="3.2084">
        <ele>726.8</ele>
        <time>2024-11-13T13:59:00.000Z</time>
      </trkpt>
      <trkpt lat="44.12942" lon="3.20833">
        <ele>726.5</ele>
        <time>2024-11-13T13:59:04.000Z</time>
      </trkpt>
      <trkpt lat="44.12952" lon="3.20829">
        <ele>726</ele>
        <time>2024-11-13T13:59:07.000Z</time>
      </trkpt>
      <trkpt lat="44.12961" lon="3.20824">
        <ele>725.7</ele>
        <time>2024-11-13T13:59:10.000Z</time>
      </trkpt>
      <trkpt lat="44.1297" lon="3.20831">
        <ele>722.2</ele>
        <time>2024-11-13T14:00:00.000Z</time>
      </trkpt>
      <trkpt lat="44.12975" lon="3.20841">
        <ele>720</ele>
        <time>2024-11-13T14:00:04.000Z</time>
      </trkpt>
      <trkpt lat="44.12971" lon="3.20853">
        <ele>717</ele>
        <time>2024-11-13T14:00:12.000Z</time>
      </trkpt>
      <trkpt lat="44.12964" lon="3.20865">
        <ele>714.9</ele>
        <time>2024-11-13T14:00:16.000Z</time>
      </trkpt>
      <trkpt lat="44.12965" lon="3.2088">
        <ele>712</ele>
        <time>2024-11-13T14:00:21.000Z</time>
      </trkpt>
      <trkpt lat="44.12967" lon="3.20897">
        <ele>710.3</ele>
        <time>2024-11-13T14:00:25.000Z</time>
      </trkpt>
      <trkpt lat="44.12966" lon="3.20914">
        <ele>708.7</ele>
        <time>2024-11-13T14:00:29.000Z</time>
      </trkpt>
      <trkpt lat="44.12967" lon="3.20927">
        <ele>707</ele>
        <time>2024-11-13T14:00:34.000Z</time>
      </trkpt>
      <trkpt lat="44.12965" lon="3.20944">
        <ele>703.4</ele>
        <time>2024-11-13T14:00:38.000Z</time>
      </trkpt>
      <trkpt lat="44.12965" lon="3.20957">
        <ele>700.3</ele>
        <time>2024-11-13T14:00:41.000Z</time>
      </trkpt>
      <trkpt lat="44.12968" lon="3.20972">
        <ele>699.4</ele>
        <time>2024-11-13T14:00:44.000Z</time>
      </trkpt>
      <trkpt lat="44.12969" lon="3.20988">
        <ele>700</ele>
        <time>2024-11-13T14:00:47.000Z</time>
      </trkpt>
      <trkpt lat="44.12966" lon="3.21001">
        <ele>697.6</ele>
        <time>2024-11-13T14:00:50.000Z</time>
      </trkpt>
      <trkpt lat="44.12963" lon="3.21016">
        <ele>695.2</ele>
        <time>2024-11-13T14:00:53.000Z</time>
      </trkpt>
      <trkpt lat="44.1296" lon="3.21029">
        <ele>692.1</ele>
        <time>2024-11-13T14:00:57.000Z</time>
      </trkpt>
      <trkpt lat="44.12957" lon="3.21044">
        <ele>687.4</ele>
        <time>2024-11-13T14:01:03.000Z</time>
      </trkpt>
      <trkpt lat="44.12956" lon="3.21058">
        <ele>684.4</ele>
        <time>2024-11-13T14:01:08.000Z</time>
      </trkpt>
      <trkpt lat="44.12965" lon="3.21069">
        <ele>682.9</ele>
        <time>2024-11-13T14:01:12.000Z</time>
      </trkpt>
      <trkpt lat="44.12973" lon="3.21078">
        <ele>681.8</ele>
        <time>2024-11-13T14:01:15.000Z</time>
      </trkpt>
      <trkpt lat="44.12982" lon="3.21087">
        <ele>680.6</ele>
        <time>2024-11-13T14:01:19.000Z</time>
      </trkpt>
      <trkpt lat="44.12989" lon="3.21098">
        <ele>678.3</ele>
        <time>2024-11-13T14:01:25.000Z</time>
      </trkpt>
      <trkpt lat="44.12979" lon="3.21099">
        <ele>676.2</ele>
        <time>2024-11-13T14:01:48.000Z</time>
      </trkpt>
      <trkpt lat="44.12965" lon="3.21096">
        <ele>674.8</ele>
        <time>2024-11-13T14:01:51.000Z</time>
      </trkpt>
      <trkpt lat="44.12955" lon="3.21094">
        <ele>673.6</ele>
        <time>2024-11-13T14:01:53.000Z</time>
      </trkpt>
      <trkpt lat="44.12946" lon="3.21091">
        <ele>672.9</ele>
        <time>2024-11-13T14:01:55.000Z</time>
      </trkpt>
      <trkpt lat="44.12938" lon="3.21083">
        <ele>671.6</ele>
        <time>2024-11-13T14:01:59.000Z</time>
      </trkpt>
      <trkpt lat="44.12933" lon="3.21072">
        <ele>670.8</ele>
        <time>2024-11-13T14:02:02.000Z</time>
      </trkpt>
      <trkpt lat="44.12925" lon="3.21063">
        <ele>667.6</ele>
        <time>2024-11-13T14:02:06.000Z</time>
      </trkpt>
      <trkpt lat="44.12919" lon="3.21053">
        <ele>665.1</ele>
        <time>2024-11-13T14:02:10.000Z</time>
      </trkpt>
      <trkpt lat="44.12916" lon="3.21066">
        <ele>661.8</ele>
        <time>2024-11-13T14:03:01.000Z</time>
      </trkpt>
      <trkpt lat="44.12916" lon="3.21079">
        <ele>659.7</ele>
        <time>2024-11-13T14:03:06.000Z</time>
      </trkpt>
      <trkpt lat="44.12906" lon="3.21083">
        <ele>658.8</ele>
        <time>2024-11-13T14:03:20.000Z</time>
      </trkpt>
      <trkpt lat="44.12902" lon="3.21095">
        <ele>655.9</ele>
        <time>2024-11-13T14:03:41.000Z</time>
      </trkpt>
      <trkpt lat="44.12896" lon="3.21106">
        <ele>650.9</ele>
        <time>2024-11-13T14:03:48.000Z</time>
      </trkpt>
      <trkpt lat="44.12888" lon="3.21113">
        <ele>645.8</ele>
        <time>2024-11-13T14:03:51.000Z</time>
      </trkpt>
      <trkpt lat="44.12878" lon="3.21122">
        <ele>643.2</ele>
        <time>2024-11-13T14:03:54.000Z</time>
      </trkpt>
      <trkpt lat="44.12869" lon="3.21124">
        <ele>640.9</ele>
        <time>2024-11-13T14:03:58.000Z</time>
      </trkpt>
      <trkpt lat="44.12856" lon="3.21125">
        <ele>637.2</ele>
        <time>2024-11-13T14:04:02.000Z</time>
      </trkpt>
      <trkpt lat="44.12846" lon="3.21123">
        <ele>633.8</ele>
        <time>2024-11-13T14:04:07.000Z</time>
      </trkpt>
      <trkpt lat="44.12836" lon="3.21114">
        <ele>633.6</ele>
        <time>2024-11-13T14:04:12.000Z</time>
      </trkpt>
      <trkpt lat="44.12826" lon="3.21113">
        <ele>630.5</ele>
        <time>2024-11-13T14:04:17.000Z</time>
      </trkpt>
      <trkpt lat="44.12826" lon="3.21129">
        <ele>623.6</ele>
        <time>2024-11-13T14:04:24.000Z</time>
      </trkpt>
      <trkpt lat="44.12818" lon="3.21136">
        <ele>617</ele>
        <time>2024-11-13T14:04:32.000Z</time>
      </trkpt>
      <trkpt lat="44.12808" lon="3.21132">
        <ele>615.5</ele>
        <time>2024-11-13T14:04:35.000Z</time>
      </trkpt>
      <trkpt lat="44.12798" lon="3.21136">
        <ele>611.9</ele>
        <time>2024-11-13T14:04:38.000Z</time>
      </trkpt>
      <trkpt lat="44.12788" lon="3.21138">
        <ele>610.9</ele>
        <time>2024-11-13T14:04:41.000Z</time>
      </trkpt>
      <trkpt lat="44.12778" lon="3.21139">
        <ele>610.2</ele>
        <time>2024-11-13T14:04:44.000Z</time>
      </trkpt>
      <trkpt lat="44.12787" lon="3.21147">
        <ele>607.5</ele>
        <time>2024-11-13T14:04:54.000Z</time>
      </trkpt>
      <trkpt lat="44.12779" lon="3.21158">
        <ele>601.4</ele>
        <time>2024-11-13T14:05:09.000Z</time>
      </trkpt>
      <trkpt lat="44.12771" lon="3.21166">
        <ele>597.5</ele>
        <time>2024-11-13T14:05:12.000Z</time>
      </trkpt>
      <trkpt lat="44.1276" lon="3.21167">
        <ele>596.9</ele>
        <time>2024-11-13T14:05:15.000Z</time>
      </trkpt>
      <trkpt lat="44.12749" lon="3.21164">
        <ele>598.3</ele>
        <time>2024-11-13T14:05:18.000Z</time>
      </trkpt>
      <trkpt lat="44.1274" lon="3.21168">
        <ele>594.9</ele>
        <time>2024-11-13T14:05:21.000Z</time>
      </trkpt>
      <trkpt lat="44.12731" lon="3.21167">
        <ele>593.4</ele>
        <time>2024-11-13T14:05:24.000Z</time>
      </trkpt>
      <trkpt lat="44.12719" lon="3.21167">
        <ele>591.3</ele>
        <time>2024-11-13T14:05:27.000Z</time>
      </trkpt>
      <trkpt lat="44.12707" lon="3.21166">
        <ele>588.8</ele>
        <time>2024-11-13T14:05:30.000Z</time>
      </trkpt>
      <trkpt lat="44.12698" lon="3.21161">
        <ele>589.4</ele>
        <time>2024-11-13T14:05:33.000Z</time>
      </trkpt>
      <trkpt lat="44.12688" lon="3.21158">
        <ele>588.7</ele>
        <time>2024-11-13T14:05:45.000Z</time>
      </trkpt>
      <trkpt lat="44.12676" lon="3.21155">
        <ele>586.8</ele>
        <time>2024-11-13T14:05:49.000Z</time>
      </trkpt>
      <trkpt lat="44.12664" lon="3.2115">
        <ele>585.6</ele>
        <time>2024-11-13T14:05:52.000Z</time>
      </trkpt>
      <trkpt lat="44.12656" lon="3.21143">
        <ele>586</ele>
        <time>2024-11-13T14:05:55.000Z</time>
      </trkpt>
      <trkpt lat="44.12663" lon="3.21154">
        <ele>583.2</ele>
        <time>2024-11-13T14:06:03.000Z</time>
      </trkpt>
      <trkpt lat="44.12671" lon="3.21165">
        <ele>581.1</ele>
        <time>2024-11-13T14:06:07.000Z</time>
      </trkpt>
      <trkpt lat="44.12679" lon="3.21175">
        <ele>578.5</ele>
        <time>2024-11-13T14:06:10.000Z</time>
      </trkpt>
      <trkpt lat="44.12687" lon="3.21184">
        <ele>577</ele>
        <time>2024-11-13T14:06:13.000Z</time>
      </trkpt>
      <trkpt lat="44.12693" lon="3.21194">
        <ele>574.8</ele>
        <time>2024-11-13T14:06:16.000Z</time>
      </trkpt>
      <trkpt lat="44.12699" lon="3.21203">
        <ele>574</ele>
        <time>2024-11-13T14:06:18.000Z</time>
      </trkpt>
      <trkpt lat="44.12707" lon="3.21212">
        <ele>574.1</ele>
        <time>2024-11-13T14:06:20.000Z</time>
      </trkpt>
      <trkpt lat="44.12706" lon="3.21225">
        <ele>572.6</ele>
        <time>2024-11-13T14:06:26.000Z</time>
      </trkpt>
      <trkpt lat="44.12695" lon="3.21226">
        <ele>568.6</ele>
        <time>2024-11-13T14:06:30.000Z</time>
      </trkpt>
      <trkpt lat="44.12686" lon="3.2123">
        <ele>566.5</ele>
        <time>2024-11-13T14:06:34.000Z</time>
      </trkpt>
      <trkpt lat="44.12695" lon="3.21224">
        <ele>568.5</ele>
        <time>2024-11-13T14:14:14.000Z</time>
      </trkpt>
      <trkpt lat="44.12689" lon="3.21233">
        <ele>568.1</ele>
        <time>2024-11-13T14:14:17.000Z</time>
      </trkpt>
      <trkpt lat="44.12679" lon="3.21241">
        <ele>566.4</ele>
        <time>2024-11-13T14:14:20.000Z</time>
      </trkpt>
      <trkpt lat="44.12668" lon="3.21247">
        <ele>563.7</ele>
        <time>2024-11-13T14:14:23.000Z</time>
      </trkpt>
      <trkpt lat="44.12656" lon="3.21249">
        <ele>560.8</ele>
        <time>2024-11-13T14:14:26.000Z</time>
      </trkpt>
      <trkpt lat="44.12646" lon="3.21251">
        <ele>558.6</ele>
        <time>2024-11-13T14:14:29.000Z</time>
      </trkpt>
      <trkpt lat="44.12636" lon="3.21252">
        <ele>556.3</ele>
        <time>2024-11-13T14:14:32.000Z</time>
      </trkpt>
      <trkpt lat="44.12625" lon="3.21252">
        <ele>553.9</ele>
        <time>2024-11-13T14:14:35.000Z</time>
      </trkpt>
      <trkpt lat="44.12614" lon="3.21248">
        <ele>550</ele>
        <time>2024-11-13T14:14:39.000Z</time>
      </trkpt>
      <trkpt lat="44.12606" lon="3.21254">
        <ele>548.6</ele>
        <time>2024-11-13T14:14:43.000Z</time>
      </trkpt>
      <trkpt lat="44.12596" lon="3.21259">
        <ele>546.1</ele>
        <time>2024-11-13T14:14:47.000Z</time>
      </trkpt>
      <trkpt lat="44.12586" lon="3.21264">
        <ele>543.6</ele>
        <time>2024-11-13T14:14:58.000Z</time>
      </trkpt>
      <trkpt lat="44.12575" lon="3.2127">
        <ele>540.9</ele>
        <time>2024-11-13T14:15:01.000Z</time>
      </trkpt>
      <trkpt lat="44.12564" lon="3.21277">
        <ele>538.8</ele>
        <time>2024-11-13T14:15:04.000Z</time>
      </trkpt>
      <trkpt lat="44.12553" lon="3.21286">
        <ele>538.3</ele>
        <time>2024-11-13T14:15:07.000Z</time>
      </trkpt>
      <trkpt lat="44.12541" lon="3.21287">
        <ele>535.4</ele>
        <time>2024-11-13T14:15:11.000Z</time>
      </trkpt>
      <trkpt lat="44.12531" lon="3.21291">
        <ele>534.4</ele>
        <time>2024-11-13T14:15:14.000Z</time>
      </trkpt>
      <trkpt lat="44.12521" lon="3.21297">
        <ele>534.5</ele>
        <time>2024-11-13T14:15:18.000Z</time>
      </trkpt>
      <trkpt lat="44.12513" lon="3.21307">
        <ele>536.7</ele>
        <time>2024-11-13T14:15:22.000Z</time>
      </trkpt>
      <trkpt lat="44.12505" lon="3.21313">
        <ele>537.8</ele>
        <time>2024-11-13T14:15:27.000Z</time>
      </trkpt>
      <trkpt lat="44.12496" lon="3.21314">
        <ele>536.7</ele>
        <time>2024-11-13T14:15:32.000Z</time>
      </trkpt>
      <trkpt lat="44.12486" lon="3.21311">
        <ele>534.4</ele>
        <time>2024-11-13T14:15:47.000Z</time>
      </trkpt>
      <trkpt lat="44.12474" lon="3.2131">
        <ele>533.2</ele>
        <time>2024-11-13T14:15:51.000Z</time>
      </trkpt>
      <trkpt lat="44.12463" lon="3.2131">
        <ele>532.9</ele>
        <time>2024-11-13T14:15:54.000Z</time>
      </trkpt>
      <trkpt lat="44.12453" lon="3.2131">
        <ele>532.3</ele>
        <time>2024-11-13T14:15:57.000Z</time>
      </trkpt>
      <trkpt lat="44.12443" lon="3.2131">
        <ele>532</ele>
        <time>2024-11-13T14:16:00.000Z</time>
      </trkpt>
      <trkpt lat="44.12432" lon="3.21312">
        <ele>532.1</ele>
        <time>2024-11-13T14:16:04.000Z</time>
      </trkpt>
      <trkpt lat="44.12423" lon="3.21314">
        <ele>531.8</ele>
        <time>2024-11-13T14:16:08.000Z</time>
      </trkpt>
      <trkpt lat="44.12413" lon="3.21316">
        <ele>531.8</ele>
        <time>2024-11-13T14:16:12.000Z</time>
      </trkpt>
      <trkpt lat="44.12404" lon="3.21319">
        <ele>531.2</ele>
        <time>2024-11-13T14:16:16.000Z</time>
      </trkpt>
      <trkpt lat="44.12394" lon="3.21324">
        <ele>531.9</ele>
        <time>2024-11-13T14:16:20.000Z</time>
      </trkpt>
      <trkpt lat="44.12385" lon="3.2133">
        <ele>532.2</ele>
        <time>2024-11-13T14:16:25.000Z</time>
      </trkpt>
      <trkpt lat="44.12376" lon="3.21339">
        <ele>533.4</ele>
        <time>2024-11-13T14:16:30.000Z</time>
      </trkpt>
      <trkpt lat="44.1237" lon="3.21349">
        <ele>535.8</ele>
        <time>2024-11-13T14:16:37.000Z</time>
      </trkpt>
      <trkpt lat="44.12364" lon="3.21358">
        <ele>536.9</ele>
        <time>2024-11-13T14:16:45.000Z</time>
      </trkpt>
      <trkpt lat="44.12356" lon="3.21366">
        <ele>537.7</ele>
        <time>2024-11-13T14:16:50.000Z</time>
      </trkpt>
      <trkpt lat="44.12348" lon="3.21375">
        <ele>539</ele>
        <time>2024-11-13T14:16:56.000Z</time>
      </trkpt>
      <trkpt lat="44.1234" lon="3.2138">
        <ele>538.3</ele>
        <time>2024-11-13T14:17:00.000Z</time>
      </trkpt>
      <trkpt lat="44.12331" lon="3.21387">
        <ele>537.7</ele>
        <time>2024-11-13T14:17:04.000Z</time>
      </trkpt>
      <trkpt lat="44.1232" lon="3.21391">
        <ele>536.8</ele>
        <time>2024-11-13T14:17:09.000Z</time>
      </trkpt>
      <trkpt lat="44.1231" lon="3.21392">
        <ele>534.7</ele>
        <time>2024-11-13T14:17:12.000Z</time>
      </trkpt>
      <trkpt lat="44.123" lon="3.21396">
        <ele>533.1</ele>
        <time>2024-11-13T14:17:16.000Z</time>
      </trkpt>
      <trkpt lat="44.12291" lon="3.21398">
        <ele>531</ele>
        <time>2024-11-13T14:17:23.000Z</time>
      </trkpt>
      <trkpt lat="44.12282" lon="3.21401">
        <ele>529</ele>
        <time>2024-11-13T14:17:26.000Z</time>
      </trkpt>
      <trkpt lat="44.12272" lon="3.21409">
        <ele>527.2</ele>
        <time>2024-11-13T14:17:31.000Z</time>
      </trkpt>
      <trkpt lat="44.12262" lon="3.21414">
        <ele>524.8</ele>
        <time>2024-11-13T14:17:35.000Z</time>
      </trkpt>
      <trkpt lat="44.12252" lon="3.21423">
        <ele>522.6</ele>
        <time>2024-11-13T14:17:39.000Z</time>
      </trkpt>
      <trkpt lat="44.12244" lon="3.21429">
        <ele>519.6</ele>
        <time>2024-11-13T14:17:42.000Z</time>
      </trkpt>
      <trkpt lat="44.12236" lon="3.21439">
        <ele>517.7</ele>
        <time>2024-11-13T14:17:46.000Z</time>
      </trkpt>
      <trkpt lat="44.12229" lon="3.21451">
        <ele>515.8</ele>
        <time>2024-11-13T14:17:50.000Z</time>
      </trkpt>
      <trkpt lat="44.12223" lon="3.21461">
        <ele>513.9</ele>
        <time>2024-11-13T14:17:53.000Z</time>
      </trkpt>
      <trkpt lat="44.12217" lon="3.21473">
        <ele>511.8</ele>
        <time>2024-11-13T14:17:57.000Z</time>
      </trkpt>
      <trkpt lat="44.12218" lon="3.21486">
        <ele>510.5</ele>
        <time>2024-11-13T14:18:03.000Z</time>
      </trkpt>
      <trkpt lat="44.1222" lon="3.21502">
        <ele>510</ele>
        <time>2024-11-13T14:18:20.000Z</time>
      </trkpt>
      <trkpt lat="44.12221" lon="3.21514">
        <ele>508.2</ele>
        <time>2024-11-13T14:18:24.000Z</time>
      </trkpt>
      <trkpt lat="44.12224" lon="3.21532">
        <ele>507.7</ele>
        <time>2024-11-13T14:18:35.000Z</time>
      </trkpt>
      <trkpt lat="44.12227" lon="3.21548">
        <ele>506.3</ele>
        <time>2024-11-13T14:18:39.000Z</time>
      </trkpt>
      <trkpt lat="44.1223" lon="3.21562">
        <ele>504.6</ele>
        <time>2024-11-13T14:18:43.000Z</time>
      </trkpt>
      <trkpt lat="44.12232" lon="3.21574">
        <ele>502.8</ele>
        <time>2024-11-13T14:18:47.000Z</time>
      </trkpt>
      <trkpt lat="44.12239" lon="3.21587">
        <ele>502.9</ele>
        <time>2024-11-13T14:18:52.000Z</time>
      </trkpt>
      <trkpt lat="44.12241" lon="3.216">
        <ele>500</ele>
        <time>2024-11-13T14:18:56.000Z</time>
      </trkpt>
      <trkpt lat="44.12242" lon="3.21615">
        <ele>496.7</ele>
        <time>2024-11-13T14:19:00.000Z</time>
      </trkpt>
      <trkpt lat="44.12245" lon="3.2163">
        <ele>495</ele>
        <time>2024-11-13T14:19:04.000Z</time>
      </trkpt>
      <trkpt lat="44.12243" lon="3.21643">
        <ele>490.9</ele>
        <time>2024-11-13T14:19:07.000Z</time>
      </trkpt>
      <trkpt lat="44.12249" lon="3.21654">
        <ele>493</ele>
        <time>2024-11-13T14:19:12.000Z</time>
      </trkpt>
      <trkpt lat="44.12257" lon="3.21659">
        <ele>495</ele>
        <time>2024-11-13T14:19:29.000Z</time>
      </trkpt>
      <trkpt lat="44.12267" lon="3.21663">
        <ele>495.4</ele>
        <time>2024-11-13T14:19:32.000Z</time>
      </trkpt>
      <trkpt lat="44.12276" lon="3.21669">
        <ele>494</ele>
        <time>2024-11-13T14:19:35.000Z</time>
      </trkpt>
      <trkpt lat="44.12287" lon="3.21677">
        <ele>492.3</ele>
        <time>2024-11-13T14:19:38.000Z</time>
      </trkpt>
      <trkpt lat="44.12298" lon="3.21681">
        <ele>493.2</ele>
        <time>2024-11-13T14:19:42.000Z</time>
      </trkpt>
      <trkpt lat="44.12308" lon="3.21682">
        <ele>496.1</ele>
        <time>2024-11-13T14:19:47.000Z</time>
      </trkpt>
      <trkpt lat="44.12318" lon="3.21685">
        <ele>499</ele>
        <time>2024-11-13T14:19:53.000Z</time>
      </trkpt>
      <trkpt lat="44.12326" lon="3.21691">
        <ele>499.4</ele>
        <time>2024-11-13T14:19:59.000Z</time>
      </trkpt>
      <trkpt lat="44.12333" lon="3.217">
        <ele>499.1</ele>
        <time>2024-11-13T14:20:04.000Z</time>
      </trkpt>
      <trkpt lat="44.1234" lon="3.21709">
        <ele>499</ele>
        <time>2024-11-13T14:20:09.000Z</time>
      </trkpt>
      <trkpt lat="44.12346" lon="3.21719">
        <ele>498.8</ele>
        <time>2024-11-13T14:20:14.000Z</time>
      </trkpt>
      <trkpt lat="44.12352" lon="3.2173">
        <ele>497.4</ele>
        <time>2024-11-13T14:20:18.000Z</time>
      </trkpt>
      <trkpt lat="44.1236" lon="3.21739">
        <ele>497.5</ele>
        <time>2024-11-13T14:20:22.000Z</time>
      </trkpt>
      <trkpt lat="44.12371" lon="3.21747">
        <ele>497.3</ele>
        <time>2024-11-13T14:20:26.000Z</time>
      </trkpt>
      <trkpt lat="44.12378" lon="3.21761">
        <ele>495</ele>
        <time>2024-11-13T14:20:30.000Z</time>
      </trkpt>
      <trkpt lat="44.12383" lon="3.21774">
        <ele>493.1</ele>
        <time>2024-11-13T14:20:33.000Z</time>
      </trkpt>
      <trkpt lat="44.12384" lon="3.21792">
        <ele>490.3</ele>
        <time>2024-11-13T14:20:36.000Z</time>
      </trkpt>
      <trkpt lat="44.12382" lon="3.21807">
        <ele>486.3</ele>
        <time>2024-11-13T14:20:39.000Z</time>
      </trkpt>
      <trkpt lat="44.12378" lon="3.21821">
        <ele>481.7</ele>
        <time>2024-11-13T14:20:42.000Z</time>
      </trkpt>
      <trkpt lat="44.12378" lon="3.21837">
        <ele>479.3</ele>
        <time>2024-11-13T14:20:46.000Z</time>
      </trkpt>
      <trkpt lat="44.12381" lon="3.21849">
        <ele>477.9</ele>
        <time>2024-11-13T14:20:49.000Z</time>
      </trkpt>
      <trkpt lat="44.12383" lon="3.21864">
        <ele>475.7</ele>
        <time>2024-11-13T14:20:53.000Z</time>
      </trkpt>
      <trkpt lat="44.12386" lon="3.2188">
        <ele>473.1</ele>
        <time>2024-11-13T14:20:57.000Z</time>
      </trkpt>
      <trkpt lat="44.1239" lon="3.21893">
        <ele>471.8</ele>
        <time>2024-11-13T14:21:05.000Z</time>
      </trkpt>
      <trkpt lat="44.1239" lon="3.21908">
        <ele>468.8</ele>
        <time>2024-11-13T14:21:09.000Z</time>
      </trkpt>
      <trkpt lat="44.12391" lon="3.21921">
        <ele>466.6</ele>
        <time>2024-11-13T14:21:13.000Z</time>
      </trkpt>
      <trkpt lat="44.1239" lon="3.21934">
        <ele>463.3</ele>
        <time>2024-11-13T14:21:17.000Z</time>
      </trkpt>
      <trkpt lat="44.12388" lon="3.21949">
        <ele>460.2</ele>
        <time>2024-11-13T14:21:21.000Z</time>
      </trkpt>
      <trkpt lat="44.12385" lon="3.21962">
        <ele>456.8</ele>
        <time>2024-11-13T14:21:24.000Z</time>
      </trkpt>
      <trkpt lat="44.12386" lon="3.21976">
        <ele>455.8</ele>
        <time>2024-11-13T14:21:27.000Z</time>
      </trkpt>
      <trkpt lat="44.12386" lon="3.21989">
        <ele>454.1</ele>
        <time>2024-11-13T14:21:30.000Z</time>
      </trkpt>
      <trkpt lat="44.12387" lon="3.22002">
        <ele>452.2</ele>
        <time>2024-11-13T14:21:33.000Z</time>
      </trkpt>
      <trkpt lat="44.12395" lon="3.22012">
        <ele>451.2</ele>
        <time>2024-11-13T14:21:37.000Z</time>
      </trkpt>
      <trkpt lat="44.12403" lon="3.22019">
        <ele>451</ele>
        <time>2024-11-13T14:21:41.000Z</time>
      </trkpt>
      <trkpt lat="44.12413" lon="3.22023">
        <ele>452.1</ele>
        <time>2024-11-13T14:21:45.000Z</time>
      </trkpt>
      <trkpt lat="44.12419" lon="3.22033">
        <ele>452.9</ele>
        <time>2024-11-13T14:21:49.000Z</time>
      </trkpt>
      <trkpt lat="44.12416" lon="3.22046">
        <ele>452</ele>
        <time>2024-11-13T14:21:53.000Z</time>
      </trkpt>
      <trkpt lat="44.1241" lon="3.22059">
        <ele>447.6</ele>
        <time>2024-11-13T14:21:57.000Z</time>
      </trkpt>
      <trkpt lat="44.124" lon="3.22059">
        <ele>441.4</ele>
        <time>2024-11-13T14:22:03.000Z</time>
      </trkpt>
      <trkpt lat="44.12389" lon="3.22061">
        <ele>434</ele>
        <time>2024-11-13T14:22:08.000Z</time>
      </trkpt>
      <trkpt lat="44.12399" lon="3.22077">
        <ele>438.4</ele>
        <time>2024-11-13T14:22:12.000Z</time>
      </trkpt>
      <trkpt lat="44.12403" lon="3.22092">
        <ele>437.7</ele>
        <time>2024-11-13T14:22:15.000Z</time>
      </trkpt>
      <trkpt lat="44.12397" lon="3.22105">
        <ele>433.7</ele>
        <time>2024-11-13T14:22:23.000Z</time>
      </trkpt>
      <trkpt lat="44.12394" lon="3.22118">
        <ele>430.3</ele>
        <time>2024-11-13T14:22:28.000Z</time>
      </trkpt>
      <trkpt lat="44.12389" lon="3.22129">
        <ele>426.5</ele>
        <time>2024-11-13T14:22:35.000Z</time>
      </trkpt>
      <trkpt lat="44.1238" lon="3.22134">
        <ele>423</ele>
        <time>2024-11-13T14:22:51.000Z</time>
      </trkpt>
      <trkpt lat="44.12373" lon="3.22142">
        <ele>419.8</ele>
        <time>2024-11-13T14:22:55.000Z</time>
      </trkpt>
      <trkpt lat="44.12365" lon="3.22152">
        <ele>416.5</ele>
        <time>2024-11-13T14:23:01.000Z</time>
      </trkpt>
      <trkpt lat="44.12357" lon="3.2214">
        <ele>416.1</ele>
        <time>2024-11-13T14:23:07.000Z</time>
      </trkpt>
      <trkpt lat="44.1235" lon="3.22124">
        <ele>413.9</ele>
        <time>2024-11-13T14:23:10.000Z</time>
      </trkpt>
      <trkpt lat="44.12347" lon="3.22107">
        <ele>413.6</ele>
        <time>2024-11-13T14:23:13.000Z</time>
      </trkpt>
      <trkpt lat="44.1234" lon="3.22096">
        <ele>411.8</ele>
        <time>2024-11-13T14:23:16.000Z</time>
      </trkpt>
      <trkpt lat="44.12333" lon="3.22103">
        <ele>408.3</ele>
        <time>2024-11-13T14:23:19.000Z</time>
      </trkpt>
      <trkpt lat="44.12331" lon="3.22116">
        <ele>406.7</ele>
        <time>2024-11-13T14:23:22.000Z</time>
      </trkpt>
      <trkpt lat="44.1233" lon="3.22132">
        <ele>404.9</ele>
        <time>2024-11-13T14:23:25.000Z</time>
      </trkpt>
      <trkpt lat="44.12331" lon="3.22149">
        <ele>403.3</ele>
        <time>2024-11-13T14:23:28.000Z</time>
      </trkpt>
      <trkpt lat="44.1233" lon="3.22162">
        <ele>401.8</ele>
        <time>2024-11-13T14:23:32.000Z</time>
      </trkpt>
    </trkseg>
  </trk>
</gpx>